Terminal Aerodrome Forecast
Issued by NWS Sterling, VA

Current Version | Previous Version | Graphics & Text | Print | Product List | Glossary On
Versions: 1 2 3 4 5 6 7 8 9 10 11 12 13
000
FTUS41 KLWX 170520
TAFMRB
TAF
KMRB 170520Z 1706/1806 VRB03KT P6SM SKC
     FM171100 VRB03KT P6SM SCT070
     FM180300 VRB04KT P6SM BKN140=

USA.gov is the U.S. government's official web portal to all federal, state and local government web resources and services.